createdAt,value
2017-09-15T00:00:32.295Z,2.53
2017-09-15T00:03:06.645Z,5.20
2017-09-15T00:05:41.957Z,3.78
2017-09-15T00:08:16.504Z,4.50
2017-09-15T00:10:50.101Z,3.12
2017-09-15T00:13:25.079Z,2.00
2017-09-15T00:15:58.788Z,4.35
2017-09-15T00:18:32.586Z,3.37
2017-09-15T00:21:06.277Z,5.12
2017-09-15T00:23:40.079Z,2.75
2017-09-15T00:26:13.685Z,2.65
2017-09-15T00:28:51.079Z,2.58
2017-09-15T00:31:25.627Z,2.62
2017-09-15T00:33:59.428Z,5.35
2017-09-15T00:36:35.263Z,6.05
2017-09-15T00:39:09.025Z,3.20
2017-09-15T00:41:44.879Z,2.90
2017-09-15T00:44:20.092Z,3.92
2017-09-15T00:46:53.791Z,2.55
2017-09-15T00:49:27.652Z,3.60
2017-09-15T00:52:01.525Z,3.05
2017-09-15T00:54:35.947Z,2.28
2017-09-15T00:57:09.644Z,3.92
2017-09-15T00:59:43.469Z,5.97
2017-09-15T01:02:17.138Z,3.75
2017-09-15T01:04:50.789Z,2.67
2017-09-15T01:07:25.081Z,5.70
2017-09-15T01:09:58.869Z,2.42
2017-09-15T01:12:32.622Z,4.72
2017-09-15T01:15:07.196Z,1.90
2017-09-15T01:17:41.713Z,3.58
2017-09-15T01:20:16.350Z,2.85
2017-09-15T01:22:50.142Z,2.97
2017-09-15T01:25:24.344Z,5.53
2017-09-15T01:27:58.086Z,2.40
2017-09-15T01:30:31.752Z,5.35
2017-09-15T01:33:05.670Z,3.35
2017-09-15T01:35:40.127Z,3.90
2017-09-15T01:38:14.504Z,5.12
2017-09-15T01:40:48.221Z,2.03
2017-09-15T01:43:23.348Z,3.28
2017-09-15T01:45:58.024Z,4.40
2017-09-15T01:48:32.793Z,3.45
2017-09-15T01:51:06.552Z,4.43
2017-09-15T01:53:41.024Z,2.62
2017-09-15T01:56:15.080Z,2.72
2017-09-15T01:58:49.453Z,3.40
2017-09-15T02:01:24.070Z,2.70
2017-09-15T02:03:57.662Z,2.85
2017-09-15T02:06:31.266Z,3.70
2017-09-15T02:09:05.144Z,3.90
2017-09-15T02:11:38.857Z,1.60
2017-09-15T02:14:12.552Z,4.32
2017-09-15T02:16:46.832Z,6.55
2017-09-15T02:19:20.411Z,2.65
2017-09-15T02:21:54.057Z,4.35
2017-09-15T02:24:27.859Z,3.17
2017-09-15T02:27:01.683Z,3.00
2017-09-15T02:29:38.173Z,2.40
2017-09-15T02:32:12.582Z,3.58
2017-09-15T02:34:46.414Z,5.00
2017-09-15T02:37:20.104Z,4.93
2017-09-15T02:39:53.742Z,6.65
2017-09-15T02:42:27.486Z,3.08
2017-09-15T02:45:01.290Z,3.05
2017-09-15T02:47:34.941Z,5.00
2017-09-15T02:50:09.531Z,4.32
2017-09-15T02:52:43.534Z,3.75
2017-09-15T02:55:17.545Z,2.92
2017-09-15T02:57:51.410Z,3.33
2017-09-15T03:00:25.001Z,5.00
2017-09-15T03:02:59.563Z,3.92
2017-09-15T03:05:33.279Z,4.07
2017-09-15T03:08:06.983Z,3.87
2017-09-15T03:10:40.533Z,2.70
2017-09-15T03:13:15.075Z,5.93
2017-09-15T03:15:48.647Z,2.87
2017-09-15T03:18:22.495Z,2.25
2017-09-15T03:20:56.264Z,4.30
2017-09-15T03:23:30.062Z,1.67
2017-09-15T03:26:04.765Z,1.75
2017-09-15T03:28:38.515Z,1.17
2017-09-15T03:31:12.915Z,2.65
2017-09-15T03:33:46.494Z,3.50
2017-09-15T03:36:20.331Z,4.20
2017-09-15T03:38:53.905Z,1.85
2017-09-15T03:41:27.868Z,5.95
2017-09-15T03:44:01.599Z,1.98
2017-09-15T03:46:35.390Z,2.15
2017-09-15T03:49:09.232Z,6.45
2017-09-15T03:51:43.653Z,3.45
2017-09-15T03:54:18.105Z,4.50
2017-09-15T03:56:51.808Z,5.70
2017-09-15T03:59:25.433Z,5.35
2017-09-15T04:01:59.224Z,3.83
2017-09-15T04:04:33.193Z,5.75
2017-09-15T04:07:06.920Z,3.53
2017-09-15T04:09:41.562Z,4.03
2017-09-15T04:12:15.243Z,2.78
2017-09-15T04:14:49.944Z,3.58
2017-09-15T04:17:23.546Z,3.28
2017-09-15T04:19:57.405Z,3.85
2017-09-15T04:22:31.317Z,2.87
2017-09-15T04:25:05.034Z,4.22
2017-09-15T04:27:38.684Z,2.90
2017-09-15T04:30:12.501Z,3.72
2017-09-15T04:32:46.211Z,4.20
2017-09-15T04:35:21.342Z,6.03
2017-09-15T04:37:55.045Z,5.05
2017-09-15T04:40:28.607Z,5.45
2017-09-15T04:43:02.403Z,3.97
2017-09-15T04:45:36.961Z,2.85
2017-09-15T04:48:10.796Z,4.10
2017-09-15T04:50:45.405Z,3.03
2017-09-15T04:53:19.167Z,6.05
2017-09-15T04:55:54.384Z,4.60
2017-09-15T04:58:28.596Z,3.17
2017-09-15T05:01:02.276Z,4.28
2017-09-15T05:03:35.893Z,6.87
2017-09-15T05:06:09.789Z,5.75
2017-09-15T05:08:43.488Z,2.40
2017-09-15T05:11:17.587Z,2.78
2017-09-15T05:13:51.254Z,5.00
2017-09-15T05:16:24.921Z,2.62
2017-09-15T05:18:58.671Z,5.35
2017-09-15T05:21:32.459Z,4.70
2017-09-15T05:24:06.773Z,5.43
2017-09-15T05:26:42.302Z,5.87
2017-09-15T05:29:16.083Z,2.22
2017-09-15T05:31:51.067Z,4.62
2017-09-15T05:34:24.960Z,3.87
2017-09-15T05:36:58.557Z,4.25
2017-09-15T05:39:32.354Z,3.12
2017-09-15T05:42:06.908Z,4.45
2017-09-15T05:44:41.039Z,4.15
2017-09-15T05:47:14.748Z,4.05
2017-09-15T05:49:48.455Z,5.18
2017-09-15T05:52:22.888Z,3.85
2017-09-15T05:54:56.773Z,4.87
2017-09-15T05:57:30.676Z,4.72
2017-09-15T06:00:04.284Z,4.18
2017-09-15T06:02:39.316Z,4.55
2017-09-15T06:05:13.158Z,4.85
2017-09-15T06:07:46.998Z,3.90
2017-09-15T06:10:20.777Z,4.82
2017-09-15T06:12:54.580Z,2.60
2017-09-15T06:15:29.040Z,7.50
2017-09-15T06:18:03.514Z,3.83
2017-09-15T06:20:37.296Z,5.18
2017-09-15T06:23:11.109Z,4.30
2017-09-15T06:25:45.052Z,4.62
2017-09-15T06:28:19.072Z,2.78
2017-09-15T06:30:53.882Z,5.05
2017-09-15T06:33:27.572Z,3.67
2017-09-15T06:36:02.861Z,4.37
2017-09-15T06:38:36.706Z,3.95
2017-09-15T06:41:10.541Z,3.40
2017-09-15T06:43:44.235Z,3.65
2017-09-15T06:46:18.010Z,4.10
2017-09-15T06:48:51.620Z,3.10
2017-09-15T06:51:26.178Z,3.83
2017-09-15T06:53:59.944Z,2.83
2017-09-15T06:56:33.750Z,3.22
2017-09-15T06:59:07.532Z,5.37
2017-09-15T07:01:41.323Z,4.05
2017-09-15T07:04:15.045Z,2.92
2017-09-15T07:06:48.974Z,1.98
2017-09-15T07:09:23.308Z,3.55
2017-09-15T07:11:57.098Z,2.47
2017-09-15T07:14:30.715Z,3.33
2017-09-15T07:17:04.546Z,4.22
2017-09-15T07:19:39.653Z,4.40
2017-09-15T07:22:13.310Z,2.97
2017-09-15T07:24:47.145Z,3.90
2017-09-15T07:27:20.875Z,2.35
2017-09-15T07:29:54.524Z,4.00
2017-09-15T07:32:28.381Z,4.25
2017-09-15T07:35:02.976Z,2.95
2017-09-15T07:37:36.640Z,2.15
2017-09-15T07:40:10.498Z,2.10
2017-09-15T07:42:44.090Z,3.50
2017-09-15T07:45:17.872Z,4.50
2017-09-15T07:47:52.313Z,5.22
2017-09-15T07:50:26.104Z,3.92
2017-09-15T07:52:59.906Z,4.45
2017-09-15T07:55:33.677Z,2.85
2017-09-15T07:58:07.438Z,4.90
2017-09-15T08:00:41.189Z,3.37
2017-09-15T08:03:14.904Z,3.35
2017-09-15T08:05:49.496Z,3.25
2017-09-15T08:08:23.042Z,3.53
2017-09-15T08:10:56.645Z,4.22
2017-09-15T08:13:30.808Z,3.60
2017-09-15T08:16:04.505Z,3.50
2017-09-15T08:18:38.315Z,3.90
2017-09-15T08:21:12.054Z,2.65
2017-09-15T08:23:45.736Z,2.97
2017-09-15T08:26:20.429Z,2.35
2017-09-15T08:28:56.077Z,2.92
2017-09-15T08:31:30.426Z,6.12
2017-09-15T08:34:04.107Z,4.30
2017-09-15T08:36:38.022Z,2.47
2017-09-15T08:39:11.686Z,2.55
2017-09-15T08:41:45.458Z,4.70
2017-09-15T08:44:20.147Z,4.10
2017-09-15T08:46:53.872Z,1.90
2017-09-15T08:49:29.795Z,2.80
2017-09-15T08:52:04.463Z,3.22
2017-09-15T08:54:38.216Z,4.03
2017-09-15T08:57:12.025Z,2.35
2017-09-15T08:59:45.623Z,1.20
2017-09-15T09:02:19.456Z,1.00
2017-09-15T09:04:53.936Z,1.40
2017-09-15T09:07:27.632Z,1.45
2017-09-15T09:10:01.328Z,1.40
2017-09-15T09:12:35.064Z,2.85
2017-09-15T09:15:08.739Z,1.48
2017-09-15T09:17:42.376Z,1.15
2017-09-15T09:20:16.187Z,1.40
2017-09-15T09:22:50.760Z,1.80
2017-09-15T09:25:25.314Z,1.33
2017-09-15T09:27:59.784Z,1.20
2017-09-15T09:30:33.384Z,0.93
2017-09-15T09:33:06.999Z,1.52
2017-09-15T09:35:41.777Z,1.48
2017-09-15T09:38:15.382Z,1.23
2017-09-15T09:40:50.060Z,1.25
2017-09-15T09:43:23.734Z,1.35
2017-09-15T09:45:57.295Z,1.37
2017-09-15T09:48:31.126Z,1.05
2017-09-15T09:51:04.928Z,1.25
2017-09-15T09:53:38.647Z,1.20
2017-09-15T09:56:12.435Z,1.00
2017-09-15T09:58:45.931Z,1.40
2017-09-15T10:01:19.577Z,1.33
2017-09-15T10:03:53.425Z,0.90
2017-09-15T10:06:27.272Z,1.73
2017-09-15T10:09:01.083Z,1.10
2017-09-15T10:11:35.819Z,1.17
2017-09-15T10:14:10.135Z,0.82
2017-09-15T10:16:44.534Z,1.10
2017-09-15T10:19:18.855Z,1.48
2017-09-15T10:21:52.543Z,0.98
2017-09-15T10:24:26.421Z,0.80
2017-09-15T10:27:00.237Z,1.42
2017-09-15T10:29:34.195Z,1.27
2017-09-15T10:32:07.907Z,1.40
2017-09-15T10:34:41.677Z,1.12
2017-09-15T10:37:17.266Z,1.40
2017-09-15T10:39:50.862Z,2.58
2017-09-15T10:42:24.642Z,1.10
2017-09-15T10:44:59.734Z,1.98
2017-09-15T10:47:34.330Z,1.58
2017-09-15T10:50:08.249Z,1.80
2017-09-15T10:52:43.242Z,1.67
2017-09-15T10:55:17.648Z,1.60
2017-09-15T10:57:57.908Z,2.25
2017-09-15T11:00:32.538Z,4.53
2017-09-15T11:03:06.275Z,3.58
2017-09-15T11:05:40.073Z,2.45
2017-09-15T11:08:13.854Z,4.22
2017-09-15T11:10:48.456Z,3.10
2017-09-15T11:13:22.090Z,3.28
2017-09-15T11:15:56.210Z,2.05
2017-09-15T11:18:30.054Z,3.65
2017-09-15T11:21:03.832Z,1.87
2017-09-15T11:23:37.439Z,3.80
2017-09-15T11:26:11.229Z,1.80
2017-09-15T11:28:45.665Z,2.03
2017-09-15T11:31:19.433Z,1.90
2017-09-15T11:33:54.272Z,1.95
2017-09-15T11:36:29.769Z,3.20
2017-09-15T11:39:03.486Z,2.22
2017-09-15T11:41:37.348Z,2.45
2017-09-15T11:44:12.681Z,5.07
2017-09-15T11:46:46.455Z,2.92
2017-09-15T11:49:20.296Z,3.08
2017-09-15T11:51:54.151Z,3.67
2017-09-15T11:54:27.899Z,3.28
2017-09-15T11:57:01.903Z,2.90
2017-09-15T11:59:37.061Z,3.72
2017-09-15T12:02:11.569Z,3.95
2017-09-15T12:04:46.075Z,3.47
2017-09-15T12:07:19.953Z,4.00
2017-09-15T12:09:56.484Z,3.95
2017-09-15T12:12:30.309Z,3.85
2017-09-15T12:15:04.087Z,3.90
2017-09-15T12:17:39.455Z,2.67
2017-09-15T12:20:14.017Z,2.97
2017-09-15T12:22:47.853Z,4.65
2017-09-15T12:25:23.269Z,3.40
2017-09-15T12:27:57.064Z,1.67
2017-09-15T12:30:32.618Z,3.08
2017-09-15T12:33:06.432Z,3.22
2017-09-15T12:35:40.951Z,4.15
2017-09-15T12:38:14.830Z,3.42
2017-09-15T12:40:48.446Z,3.95
2017-09-15T12:43:22.845Z,3.42
2017-09-15T12:45:56.426Z,6.28
2017-09-15T12:48:30.191Z,4.68
2017-09-15T12:51:04.031Z,4.03
2017-09-15T12:53:37.757Z,4.30
2017-09-15T12:56:12.285Z,4.20
2017-09-15T12:58:46.044Z,3.55
2017-09-15T13:01:20.078Z,3.80
2017-09-15T13:03:55.121Z,3.65
2017-09-15T13:06:29.883Z,2.78
2017-09-15T13:09:04.537Z,3.08
2017-09-15T13:11:39.145Z,3.42
2017-09-15T13:14:12.935Z,4.45
2017-09-15T13:16:46.666Z,2.90
2017-09-15T13:19:20.452Z,2.55
2017-09-15T13:21:54.152Z,5.43
2017-09-15T13:24:27.848Z,4.12
2017-09-15T13:27:01.653Z,3.62
2017-09-15T13:29:36.459Z,4.60
2017-09-15T13:32:10.131Z,4.70
2017-09-15T13:34:45.013Z,4.80
2017-09-15T13:37:18.659Z,4.93
2017-09-15T13:39:53.399Z,6.00
2017-09-15T13:42:27.768Z,3.60
2017-09-15T13:45:03.389Z,3.22
2017-09-15T13:47:37.520Z,7.75
2017-09-15T13:50:11.389Z,6.35
2017-09-15T13:52:45.277Z,4.60
2017-09-15T13:55:20.908Z,5.07
2017-09-15T13:57:55.212Z,4.25
2017-09-15T14:00:30.621Z,4.45
2017-09-15T14:03:05.463Z,3.83
2017-09-15T14:05:39.201Z,4.53
2017-09-15T14:08:15.524Z,5.28
2017-09-15T14:10:50.141Z,6.10
2017-09-15T14:13:23.914Z,4.85
2017-09-15T14:15:57.616Z,4.78
2017-09-15T14:18:31.679Z,3.75
2017-09-15T14:21:05.550Z,4.57
2017-09-15T14:23:39.213Z,3.08
2017-09-15T14:26:13.004Z,4.87
2017-09-15T14:28:47.340Z,3.85
2017-09-15T14:31:21.122Z,4.18
2017-09-15T14:33:55.634Z,5.07
2017-09-15T14:36:30.223Z,6.18
2017-09-15T14:39:04.206Z,3.30
2017-09-15T14:41:37.840Z,2.67
2017-09-15T14:44:11.556Z,4.47
2017-09-15T14:46:45.933Z,5.45
2017-09-15T14:49:19.629Z,5.30
2017-09-15T14:51:54.143Z,5.40
2017-09-15T14:54:27.965Z,3.40
2017-09-15T14:57:03.620Z,6.20
2017-09-15T14:59:38.351Z,5.57
2017-09-15T15:02:13.837Z,4.32
2017-09-15T15:04:49.345Z,4.90
2017-09-15T15:07:22.894Z,5.12
2017-09-15T15:09:56.754Z,6.00
2017-09-15T15:12:31.322Z,6.32
2017-09-15T15:15:05.064Z,2.80
2017-09-15T15:17:39.741Z,3.30
2017-09-15T15:20:14.932Z,3.78
2017-09-15T15:22:49.026Z,6.78
2017-09-15T15:25:22.687Z,5.43
2017-09-15T15:27:58.183Z,5.60
2017-09-15T15:30:31.817Z,7.12
2017-09-15T15:33:05.563Z,4.28
2017-09-15T15:35:40.649Z,6.20
2017-09-15T15:38:15.270Z,4.10
2017-09-15T15:40:48.905Z,4.80
2017-09-15T15:43:22.669Z,2.30
2017-09-15T15:45:58.355Z,3.53
2017-09-15T15:48:32.130Z,3.85
2017-09-15T15:51:06.686Z,4.78
2017-09-15T15:53:42.029Z,5.10
2017-09-15T15:56:15.824Z,3.85
2017-09-15T15:58:50.438Z,3.00
2017-09-15T16:01:25.922Z,5.87
2017-09-15T16:04:02.984Z,3.22
2017-09-15T16:06:36.757Z,3.62
2017-09-15T16:09:10.455Z,4.40
2017-09-15T16:11:44.267Z,3.30
2017-09-15T16:14:17.992Z,6.68
2017-09-15T16:16:52.356Z,3.97
2017-09-15T16:19:26.119Z,4.93
2017-09-15T16:22:00.393Z,3.90
2017-09-15T16:24:34.197Z,7.70
2017-09-15T16:27:09.717Z,4.05
2017-09-15T16:29:43.682Z,4.12
2017-09-15T16:32:19.738Z,4.95
2017-09-15T16:34:53.433Z,4.80
2017-09-15T16:37:26.681Z,4.40
2017-09-15T16:40:06.025Z,2.83
2017-09-15T16:42:45.504Z,5.15
2017-09-15T16:45:24.833Z,5.57
2017-09-15T16:48:04.451Z,4.65
2017-09-15T16:50:38.236Z,5.62
2017-09-15T16:53:13.419Z,4.87
2017-09-15T16:55:47.153Z,5.70
2017-09-15T16:58:21.722Z,4.80
2017-09-15T17:00:55.435Z,3.40
2017-09-15T17:03:29.895Z,5.72
2017-09-15T17:06:04.148Z,4.60
2017-09-15T17:08:37.950Z,5.87
2017-09-15T17:11:11.568Z,4.50
2017-09-15T17:13:47.280Z,4.40
2017-09-15T17:16:21.084Z,3.33
2017-09-15T17:18:54.813Z,6.05
2017-09-15T17:21:30.537Z,7.15
2017-09-15T17:24:06.696Z,4.70
2017-09-15T17:26:40.555Z,3.75
2017-09-15T17:29:15.979Z,5.70
2017-09-15T17:31:49.773Z,6.37
2017-09-15T17:34:23.471Z,4.37
2017-09-15T17:36:58.366Z,3.17
2017-09-15T17:39:32.945Z,4.82
2017-09-15T17:42:07.274Z,5.53
2017-09-15T17:44:41.729Z,6.15
2017-09-15T17:47:15.495Z,5.50
2017-09-15T17:49:52.024Z,7.22
2017-09-15T17:52:26.563Z,8.00
2017-09-15T17:55:02.076Z,8.90
2017-09-15T17:57:37.332Z,11.40
2017-09-15T18:00:11.217Z,12.00
2017-09-15T18:02:45.291Z,11.93
2017-09-15T18:05:19.125Z,11.77
2017-09-15T18:07:53.591Z,12.27
2017-09-15T18:10:27.393Z,7.00
2017-09-15T18:13:01.224Z,8.95
2017-09-15T18:15:34.933Z,7.90
2017-09-15T18:18:08.609Z,8.43
2017-09-15T18:20:44.919Z,9.15
2017-09-15T18:23:18.771Z,8.50
2017-09-15T18:25:52.825Z,14.98
2017-09-15T18:28:26.603Z,8.05
2017-09-15T18:31:02.310Z,19.55
2017-09-15T18:33:36.155Z,27.48
2017-09-15T18:36:09.904Z,13.95
2017-09-15T18:38:43.730Z,12.88
2017-09-15T18:41:18.414Z,10.95
2017-09-15T18:43:52.261Z,12.00
2017-09-15T18:46:26.825Z,10.95
2017-09-15T18:49:00.622Z,8.65
2017-09-15T18:51:35.174Z,8.15
2017-09-15T18:54:08.805Z,8.25
2017-09-15T18:56:43.107Z,6.50
2017-09-15T18:59:17.735Z,6.80
2017-09-15T19:01:52.518Z,8.60
2017-09-15T19:04:26.939Z,8.63
2017-09-15T19:07:00.586Z,7.70
2017-09-15T19:09:34.272Z,10.60
2017-09-15T19:12:08.707Z,10.00
2017-09-15T19:14:42.436Z,9.40
2017-09-15T19:17:17.062Z,10.95
2017-09-15T19:19:50.735Z,11.00
2017-09-15T19:22:25.098Z,8.70
2017-09-15T19:24:58.902Z,7.20
2017-09-15T19:27:33.636Z,8.15
2017-09-15T19:30:08.216Z,8.75
2017-09-15T19:32:42.786Z,5.75
2017-09-15T19:35:16.348Z,8.00
2017-09-15T19:37:50.066Z,5.65
2017-09-15T19:40:24.598Z,7.82
2017-09-15T19:42:59.157Z,8.95
2017-09-15T19:45:34.023Z,5.93
2017-09-15T19:48:08.909Z,6.97
2017-09-15T19:50:43.388Z,7.53
2017-09-15T19:53:17.176Z,6.78
2017-09-15T19:55:51.044Z,9.93
2017-09-15T19:58:25.591Z,6.45
2017-09-15T20:01:00.602Z,9.60
2017-09-15T20:03:35.844Z,5.90
2017-09-15T20:06:09.563Z,9.55
2017-09-15T20:08:43.392Z,6.72
2017-09-15T20:11:17.131Z,3.92
2017-09-15T20:13:50.913Z,7.45
2017-09-15T20:16:25.358Z,6.37
2017-09-15T20:18:59.569Z,6.97
2017-09-15T20:21:34.071Z,6.30
2017-09-15T20:24:07.891Z,8.23
2017-09-15T20:26:42.704Z,7.45
2017-09-15T20:29:16.345Z,8.30
2017-09-15T20:31:50.209Z,6.85
2017-09-15T20:34:24.029Z,6.05
2017-09-15T20:36:57.900Z,5.72
2017-09-15T20:39:32.433Z,6.60
2017-09-15T20:42:06.332Z,8.73
2017-09-15T20:44:40.075Z,8.98
2017-09-15T20:47:15.141Z,9.98
2017-09-15T20:49:49.500Z,8.65
2017-09-15T20:52:24.012Z,5.87
2017-09-15T20:54:58.745Z,5.57
2017-09-15T20:57:32.522Z,5.43
2017-09-15T21:00:07.052Z,5.03
2017-09-15T21:02:41.464Z,6.90
2017-09-15T21:05:15.413Z,6.75
2017-09-15T21:07:50.877Z,4.65
2017-09-15T21:10:24.540Z,8.88
2017-09-15T21:12:58.354Z,7.80
2017-09-15T21:15:33.018Z,8.20
2017-09-15T21:18:07.446Z,9.27
2017-09-15T21:20:41.847Z,6.37
2017-09-15T21:23:15.396Z,7.82
2017-09-15T21:25:49.180Z,8.07
2017-09-15T21:28:22.890Z,9.27
2017-09-15T21:31:04.923Z,6.40
2017-09-15T21:33:38.767Z,7.12
2017-09-15T21:36:13.218Z,6.32
2017-09-15T21:38:47.955Z,6.03
2017-09-15T21:41:22.647Z,5.57
2017-09-15T21:43:57.542Z,7.78
2017-09-15T21:46:31.930Z,6.12
2017-09-15T21:49:05.760Z,5.10
2017-09-15T21:51:41.388Z,6.12
2017-09-15T21:54:16.076Z,7.15
2017-09-15T21:56:49.834Z,7.30
2017-09-15T21:59:23.499Z,4.70
2017-09-15T22:01:57.350Z,4.53
2017-09-15T22:04:39.913Z,5.40
2017-09-15T22:07:13.747Z,6.25
2017-09-15T22:09:49.141Z,6.07
2017-09-15T22:12:22.766Z,4.55
2017-09-15T22:15:01.969Z,5.25
2017-09-15T22:17:35.759Z,6.05
2017-09-15T22:20:09.424Z,4.57
2017-09-15T22:22:43.860Z,7.45
2017-09-15T22:25:18.505Z,6.87
2017-09-15T22:27:55.130Z,5.62
2017-09-15T22:30:29.647Z,5.80
2017-09-15T22:33:04.136Z,6.05
2017-09-15T22:35:38.017Z,7.60
2017-09-15T22:38:13.147Z,6.47
2017-09-15T22:40:46.980Z,6.22
2017-09-15T22:43:20.643Z,5.32
2017-09-15T22:45:55.712Z,7.30
2017-09-15T22:48:29.402Z,6.05
2017-09-15T22:51:03.207Z,5.57
2017-09-15T22:53:37.704Z,4.43
2017-09-15T22:56:12.192Z,6.15
2017-09-15T22:58:47.377Z,3.85
2017-09-15T23:01:21.418Z,3.65
2017-09-15T23:03:56.215Z,6.70
2017-09-15T23:06:29.991Z,6.53
2017-09-15T23:09:04.571Z,7.45
2017-09-15T23:11:38.281Z,4.37
2017-09-15T23:14:12.179Z,6.18
2017-09-15T23:16:46.611Z,5.22
2017-09-15T23:19:21.066Z,6.00
2017-09-15T23:21:56.507Z,5.37
2017-09-15T23:24:30.315Z,5.28
2017-09-15T23:27:04.025Z,4.87
2017-09-15T23:29:37.761Z,6.20
2017-09-15T23:32:11.559Z,6.37
2017-09-15T23:34:46.321Z,5.87
2017-09-15T23:37:20.927Z,3.80
2017-09-15T23:44:28.614Z,6.43
2017-09-15T23:47:02.945Z,6.32
2017-09-15T23:49:37.538Z,10.55
2017-09-15T23:52:11.439Z,7.82
2017-09-15T23:54:45.092Z,6.72
2017-09-15T23:57:18.985Z,6.85
2017-09-15T23:59:54.006Z,8.88
